Time;durP1;ratioP1;P1;durP2;ratioP2;P2;SDS_P1;SDS_P2;PMS_P1;PMS_P2;Temp;Humidity;BMP_temperature;BMP_pressure;BME280_temperature;BME280_humidity;BME280_pressure;Samples;Min_cycle;Max_cycle;Signal;HPM_P1;HPM_P2
2022/03/22 00:00:29;;;;;;;57.45;25.58;;;;;;;;;;5052930;28;20119;-74
2022/03/22 00:02:55;;;;;;;58.00;27.67;;;;;;;;;;5053046;28;20050;-74
2022/03/22 00:05:21;;;;;;;59.90;26.90;;;;;;;;;;5069458;28;20063;-73
2022/03/22 00:07:48;;;;;;;54.05;26.08;;;;;;;;;;5052707;28;20495;-74
2022/03/22 00:10:14;;;;;;;59.80;27.50;;;;;;;;;;5069523;28;20443;-73
2022/03/22 00:12:40;;;;;;;59.08;26.60;;;;;;;;;;5069347;28;20116;-74
2022/03/22 00:15:08;;;;;;;54.65;23.50;;;;;;;;;;5052652;28;20571;-74
2022/03/22 00:17:34;;;;;;;52.97;23.27;;;;;;;;;;5069333;28;20102;-73
2022/03/22 00:20:00;;;;;;;52.65;26.70;;;;;;;;;;5052575;28;20475;-74
2022/03/22 00:22:27;;;;;;;53.72;25.48;;;;;;;;;;5052642;28;20367;-74
2022/03/22 00:24:53;;;;;;;53.65;25.20;;;;;;;;;;5069462;28;20102;-74
2022/03/22 00:27:19;;;;;;;53.92;25.23;;;;;;;;;;5052966;28;20040;-73
2022/03/22 00:29:45;;;;;;;64.25;26.75;;;;;;;;;;5052640;28;20040;-73
2022/03/22 00:32:11;;;;;;;64.60;27.80;;;;;;;;;;5052430;28;20040;-73
2022/03/22 00:34:47;;;;;;;55.70;25.52;;;;;;;;;;5069299;28;20049;-74
2022/03/22 00:37:17;;;;;;;40.15;20.58;;;;;;;;;;5050773;28;20078;-74
2022/03/22 00:39:43;;;;;;;51.88;24.27;;;;;;;;;;5069027;28;20415;-73
2022/03/22 00:42:10;;;;;;;55.72;26.40;;;;;;;;;;5052053;28;20374;-74
2022/03/22 00:44:37;;;;;;;55.72;26.02;;;;;;;;;;5051999;28;20093;-73
2022/03/22 00:47:04;;;;;;;54.30;24.85;;;;;;;;;;5052156;28;20396;-74
2022/03/22 00:49:32;;;;;;;51.78;23.35;;;;;;;;;;5052081;28;20541;-73
2022/03/22 00:52:01;;;;;;;49.70;23.20;;;;;;;;;;5052441;28;20190;-74
2022/03/22 00:54:27;;;;;;;50.58;24.65;;;;;;;;;;5052109;28;20041;-74
2022/03/22 00:56:54;;;;;;;51.63;25.27;;;;;;;;;;5052211;28;20039;-74
2022/03/22 01:02:05;;;;;;;55.55;25.25;;;;;;;;;;5066252;28;20040;-73
2022/03/22 01:04:31;;;;;;;54.17;24.00;;;;;;;;;;5052230;28;20029;-74
2022/03/22 01:06:57;;;;;;;53.80;24.75;;;;;;;;;;5052167;28;20041;-74
2022/03/22 01:09:23;;;;;;;54.45;25.52;;;;;;;;;;5052272;28;20062;-74
2022/03/22 01:11:49;;;;;;;64.57;27.85;;;;;;;;;;5051954;28;20037;-74
2022/03/22 01:14:15;;;;;;;66.55;28.17;;;;;;;;;;5051913;28;20534;-74
2022/03/22 01:16:40;;;;;;;57.90;26.63;;;;;;;;;;5051579;28;20496;-74
2022/03/22 01:19:07;;;;;;;58.67;27.52;;;;;;;;;;5052096;28;20106;-74
2022/03/22 01:21:34;;;;;;;62.60;28.27;;;;;;;;;;5068537;28;20071;-73
2022/03/22 01:24:03;;;;;;;61.10;27.20;;;;;;;;;;5068797;28;20048;-74
2022/03/22 01:26:29;;;;;;;57.80;27.42;;;;;;;;;;5052084;28;20041;-73
2022/03/22 01:28:55;;;;;;;56.70;27.55;;;;;;;;;;5051938;28;20029;-73
2022/03/22 01:31:22;;;;;;;64.22;30.25;;;;;;;;;;5051647;28;20036;-74
2022/03/22 01:33:48;;;;;;;62.78;28.08;;;;;;;;;;5054300;28;20078;-74
2022/03/22 01:36:14;;;;;;;62.50;27.60;;;;;;;;;;5055588;28;20588;-73
2022/03/22 01:38:40;;;;;;;63.60;27.90;;;;;;;;;;5055557;28;20032;-73
2022/03/22 01:41:06;;;;;;;61.08;26.98;;;;;;;;;;5055800;28;20040;-73
2022/03/22 01:43:33;;;;;;;56.75;26.50;;;;;;;;;;5072455;28;20036;-73
2022/03/22 01:45:59;;;;;;;62.13;27.10;;;;;;;;;;5055576;28;20491;-74
2022/03/22 01:48:25;;;;;;;56.63;26.45;;;;;;;;;;5072187;28;20032;-73
2022/03/22 01:50:51;;;;;;;57.45;27.65;;;;;;;;;;5072039;28;20476;-73
2022/03/22 01:53:17;;;;;;;54.60;24.65;;;;;;;;;;5055520;28;20105;-73
2022/03/22 01:55:43;;;;;;;57.33;26.35;;;;;;;;;;5072100;28;20032;-73
2022/03/22 01:58:09;;;;;;;59.03;25.80;;;;;;;;;;5072261;28;20040;-74
2022/03/22 02:00:35;;;;;;;57.20;25.35;;;;;;;;;;5055663;28;20512;-73
2022/03/22 02:06:03;;;;;;;;;;;;;;;;;;5005752;28;20045;-74
2022/03/22 02:08:30;;;;;;;29.88;15.70;;;;;;;;;;5062782;28;20369;-74
2022/03/22 02:10:59;;;;;;;35.42;16.88;;;;;;;;;;5071864;28;20028;-74
2022/03/22 02:13:25;;;;;;;32.78;16.10;;;;;;;;;;5052618;28;20123;-74
2022/03/22 02:15:53;;;;;;;31.35;16.45;;;;;;;;;;5071479;28;20110;-73
2022/03/22 02:18:19;;;;;;;43.38;19.95;;;;;;;;;;5071585;28;20533;-73
2022/03/22 02:20:46;;;;;;;33.30;17.77;;;;;;;;;;5052491;28;20067;-74
2022/03/22 02:23:19;;;;;;;32.15;16.88;;;;;;;;;;5055124;28;20043;-74
2022/03/22 02:25:49;;;;;;;45.35;20.60;;;;;;;;;;5052321;28;20039;-74
2022/03/22 02:28:16;;;;;;;50.40;23.73;;;;;;;;;;5054864;28;20039;-73
2022/03/22 02:30:43;;;;;;;48.28;23.42;;;;;;;;;;5054958;28;20243;-73
2022/03/22 02:33:10;;;;;;;56.55;24.23;;;;;;;;;;5054913;28;20677;-74
2022/03/22 02:35:36;;;;;;;56.67;25.25;;;;;;;;;;5054939;28;20041;-74
2022/03/22 02:38:01;;;;;;;53.67;25.25;;;;;;;;;;5054351;28;20144;-74
2022/03/22 02:40:27;;;;;;;54.05;25.73;;;;;;;;;;5054754;28;20359;-73
2022/03/22 02:42:54;;;;;;;50.58;24.52;;;;;;;;;;5071444;28;20035;-73
2022/03/22 02:45:23;;;;;;;41.88;18.23;;;;;;;;;;5070944;28;20048;-74
2022/03/22 02:47:50;;;;;;;48.63;21.98;;;;;;;;;;5054664;28;20079;-74
2022/03/22 02:50:16;;;;;;;46.38;21.52;;;;;;;;;;5054665;28;20085;-74
2022/03/22 02:52:42;;;;;;;50.60;22.00;;;;;;;;;;5054358;28;20044;-74
2022/03/22 02:55:09;;;;;;;38.20;18.65;;;;;;;;;;5070850;28;20041;-73
2022/03/22 02:57:36;;;;;;;47.20;21.27;;;;;;;;;;5070823;28;20047;-74
2022/03/22 03:00:03;;;;;;;41.97;21.15;;;;;;;;;;5070780;28;20053;-73
2022/03/22 03:02:29;;;;;;;46.88;21.90;;;;;;;;;;5053953;28;20123;-74
2022/03/22 03:04:55;;;;;;;56.47;25.13;;;;;;;;;;5053915;28;20036;-74
2022/03/22 03:07:21;;;;;;;50.38;22.65;;;;;;;;;;5070522;28;20033;-74
2022/03/22 03:09:47;;;;;;;58.22;27.58;;;;;;;;;;5053948;28;20472;-74
2022/03/22 03:12:13;;;;;;;47.08;23.52;;;;;;;;;;5053946;28;20477;-74
2022/03/22 03:14:39;;;;;;;55.38;26.45;;;;;;;;;;5070429;28;20511;-74
2022/03/22 03:17:09;;;;;;;49.75;23.25;;;;;;;;;;5067555;28;20507;-73
2022/03/22 03:19:35;;;;;;;44.65;20.67;;;;;;;;;;5070410;28;20066;-73
2022/03/22 03:22:03;;;;;;;44.30;19.77;;;;;;;;;;5070375;28;20373;-73
2022/03/22 03:24:29;;;;;;;53.83;25.38;;;;;;;;;;5070181;28;20037;-74
2022/03/22 03:26:55;;;;;;;53.22;25.17;;;;;;;;;;5053880;28;20068;-73
2022/03/22 03:29:21;;;;;;;55.60;25.05;;;;;;;;;;5053517;28;20047;-73
2022/03/22 03:31:47;;;;;;;56.13;26.23;;;;;;;;;;5070324;28;20033;-73
2022/03/22 03:34:13;;;;;;;64.13;27.08;;;;;;;;;;5070565;28;20041;-73
2022/03/22 03:36:39;;;;;;;60.05;26.77;;;;;;;;;;5069951;28;20432;-73
2022/03/22 03:39:05;;;;;;;56.08;26.48;;;;;;;;;;5053482;28;20041;-73
2022/03/22 03:47:04;;;;;;;48.95;22.65;;;;;;;;;;5071166;28;20151;-74
2022/03/22 03:49:30;;;;;;;50.75;22.88;;;;;;;;;;5054415;28;20044;-74
2022/03/22 03:51:56;;;;;;;55.17;23.52;;;;;;;;;;5071284;28;20048;-73
2022/03/22 03:54:22;;;;;;;58.13;25.05;;;;;;;;;;5071040;28;20044;-73
2022/03/22 03:56:48;;;;;;;54.08;23.92;;;;;;;;;;5053866;28;20070;-73
2022/03/22 03:59:14;;;;;;;50.33;22.13;;;;;;;;;;5054564;28;20037;-73
2022/03/22 04:01:40;;;;;;;52.78;23.35;;;;;;;;;;5054584;28;20151;-74
2022/03/22 04:04:06;;;;;;;52.60;22.63;;;;;;;;;;5054369;28;20093;-73
2022/03/22 04:06:33;;;;;;;51.20;22.88;;;;;;;;;;5071118;28;20041;-73
2022/03/22 04:08:58;;;;;;;53.53;26.02;;;;;;;;;;5054542;28;20079;-73
2022/03/22 04:11:24;;;;;;;56.90;25.10;;;;;;;;;;5054537;28;20071;-73
2022/03/22 04:13:50;;;;;;;57.00;23.70;;;;;;;;;;5054366;28;20032;-73
2022/03/22 04:16:16;;;;;;;54.85;25.40;;;;;;;;;;5070591;28;20060;-73
2022/03/22 04:18:42;;;;;;;64.70;26.63;;;;;;;;;;5053996;28;20052;-73
2022/03/22 04:21:08;;;;;;;61.65;26.20;;;;;;;;;;5071120;28;20488;-73
2022/03/22 04:23:34;;;;;;;51.70;24.48;;;;;;;;;;5071109;28;20393;-73
2022/03/22 04:26:00;;;;;;;57.50;25.25;;;;;;;;;;5070964;28;20040;-74
2022/03/22 04:33:55;;;;;;;60.20;23.90;;;;;;;;;;5070644;28;20048;-73
2022/03/22 04:36:21;;;;;;;63.75;26.55;;;;;;;;;;5070603;28;20496;-73
2022/03/22 04:38:47;;;;;;;52.05;24.80;;;;;;;;;;5068107;28;20048;-73
2022/03/22 04:41:13;;;;;;;58.95;26.20;;;;;;;;;;5053509;28;20040;-73
2022/03/22 04:43:39;;;;;;;66.13;28.23;;;;;;;;;;5053809;28;20399;-73
2022/03/22 04:46:07;;;;;;;59.67;24.63;;;;;;;;;;5070259;28;20111;-73
2022/03/22 04:48:33;;;;;;;56.72;26.67;;;;;;;;;;5053439;28;20056;-73
2022/03/22 04:56:45;;;;;;;55.65;24.60;;;;;;;;;;5070252;28;20048;-73
2022/03/22 04:59:11;;;;;;;56.03;25.50;;;;;;;;;;5053548;28;20472;-74
2022/03/22 05:01:37;;;;;;;52.97;23.98;;;;;;;;;;5070570;28;20036;-74
2022/03/22 05:04:03;;;;;;;53.15;24.85;;;;;;;;;;5070346;28;20054;-74
2022/03/22 05:06:31;;;;;;;51.20;23.92;;;;;;;;;;5053331;28;20123;-73
2022/03/22 05:08:57;;;;;;;53.33;24.38;;;;;;;;;;5073324;28;20119;-74
2022/03/22 05:11:24;;;;;;;57.40;24.50;;;;;;;;;;5074559;28;20047;-73
2022/03/22 05:13:50;;;;;;;47.08;22.60;;;;;;;;;;5057519;28;20063;-73
2022/03/22 05:16:16;;;;;;;54.95;22.45;;;;;;;;;;5057237;28;20052;-73
2022/03/22 05:18:42;;;;;;;55.00;24.98;;;;;;;;;;5074414;28;20194;-74
2022/03/22 05:21:08;;;;;;;54.67;25.40;;;;;;;;;;5074265;28;20480;-73
2022/03/22 05:23:34;;;;;;;55.38;24.88;;;;;;;;;;5073902;28;20040;-73
2022/03/22 05:26:00;;;;;;;56.60;24.65;;;;;;;;;;5073945;28;20060;-73
2022/03/22 05:28:26;;;;;;;54.58;25.55;;;;;;;;;;5057277;28;20036;-73
2022/03/22 05:30:52;;;;;;;57.80;26.42;;;;;;;;;;5074154;28;20047;-73
2022/03/22 05:33:18;;;;;;;59.10;25.80;;;;;;;;;;5057362;28;20078;-73
2022/03/22 05:35:44;;;;;;;56.67;24.92;;;;;;;;;;5074021;28;20044;-73
2022/03/22 05:38:10;;;;;;;55.97;24.92;;;;;;;;;;5057044;28;20044;-73
2022/03/22 05:40:37;;;;;;;53.50;26.77;;;;;;;;;;5073851;28;20036;-73
2022/03/22 05:43:03;;;;;;;50.13;23.95;;;;;;;;;;5056796;28;20102;-73
2022/03/22 05:45:31;;;;;;;53.72;24.40;;;;;;;;;;5073534;28;20041;-74
2022/03/22 05:48:00;;;;;;;55.15;25.42;;;;;;;;;;5057247;28;20127;-73
2022/03/22 05:50:26;;;;;;;56.55;25.42;;;;;;;;;;5073712;28;20496;-73
2022/03/22 05:52:52;;;;;;;53.75;25.25;;;;;;;;;;5073274;28;20074;-74
2022/03/22 05:55:18;;;;;;;60.72;25.15;;;;;;;;;;5057049;28;20049;-73
2022/03/22 05:57:44;;;;;;;54.95;24.73;;;;;;;;;;5056846;28;20045;-73
2022/03/22 06:00:11;;;;;;;55.42;23.23;;;;;;;;;;5073318;28;20047;-73
2022/03/22 06:02:37;;;;;;;48.00;24.20;;;;;;;;;;5056576;28;20037;-73
2022/03/22 06:05:05;;;;;;;56.45;27.02;;;;;;;;;;5056441;28;20032;-74
2022/03/22 06:07:31;;;;;;;55.85;25.45;;;;;;;;;;5056792;28;20141;-74
2022/03/22 06:09:57;;;;;;;56.00;24.92;;;;;;;;;;5056531;28;20041;-73
2022/03/22 06:12:22;;;;;;;60.20;25.27;;;;;;;;;;5056451;28;20055;-74
2022/03/22 06:15:14;;;;;;;51.45;23.27;;;;;;;;;;5073347;28;20044;-73
2022/03/22 06:17:34;;;;;;;59.90;24.15;;;;;;;;;;5072711;28;20052;-73
2022/03/22 06:20:01;;;;;;;52.78;24.27;;;;;;;;;;5055978;28;20044;-73
2022/03/22 06:22:27;;;;;;;52.85;23.90;;;;;;;;;;5056505;28;20123;-73
2022/03/22 06:24:54;;;;;;;58.05;25.55;;;;;;;;;;5072857;28;20343;-73
2022/03/22 06:27:20;;;;;;;56.38;24.08;;;;;;;;;;5073677;28;20040;-73
2022/03/22 06:29:46;;;;;;;50.47;25.23;;;;;;;;;;5073448;28;20128;-73
2022/03/22 06:32:12;;;;;;;59.55;24.00;;;;;;;;;;5057081;28;20482;-73
2022/03/22 06:34:38;;;;;;;54.33;25.60;;;;;;;;;;5073234;28;20048;-73
2022/03/22 06:37:05;;;;;;;52.42;25.33;;;;;;;;;;5072461;28;20477;-73
2022/03/22 06:39:31;;;;;;;49.60;24.45;;;;;;;;;;5072840;28;20036;-72
2022/03/22 06:41:57;;;;;;;51.17;24.02;;;;;;;;;;5072437;28;20047;-73
2022/03/22 06:44:23;;;;;;;50.22;23.80;;;;;;;;;;5056073;28;20040;-72
2022/03/22 06:46:49;;;;;;;51.25;25.00;;;;;;;;;;5055750;28;20055;-73
2022/03/22 06:49:15;;;;;;;54.60;24.85;;;;;;;;;;5055624;28;20037;-73
2022/03/22 06:51:41;;;;;;;59.17;25.13;;;;;;;;;;5056035;28;20063;-73
2022/03/22 06:54:07;;;;;;;49.63;24.58;;;;;;;;;;5055556;28;20087;-73
2022/03/22 06:56:33;;;;;;;60.83;26.17;;;;;;;;;;5055634;28;20492;-74
2022/03/22 06:58:59;;;;;;;49.22;24.10;;;;;;;;;;5055569;28;20404;-73
2022/03/22 07:01:25;;;;;;;50.72;25.55;;;;;;;;;;5053087;28;20455;-74
2022/03/22 07:03:51;;;;;;;55.92;25.45;;;;;;;;;;5068458;28;20726;-74
2022/03/22 07:06:17;;;;;;;48.88;23.67;;;;;;;;;;5068388;28;20052;-74
2022/03/22 07:08:43;;;;;;;48.45;22.92;;;;;;;;;;5051881;28;20074;-74
2022/03/22 07:13:53;;;;;;;52.45;22.67;;;;;;;;;;5068696;28;20074;-74
2022/03/22 07:16:19;;;;;;;47.28;23.98;;;;;;;;;;5051721;28;20048;-74
2022/03/22 07:18:45;;;;;;;46.10;23.77;;;;;;;;;;5067943;28;20044;-74
2022/03/22 07:21:11;;;;;;;50.95;23.80;;;;;;;;;;5068286;28;20254;-74
2022/03/22 07:23:38;;;;;;;43.85;21.70;;;;;;;;;;5051555;28;20032;-74
2022/03/22 07:26:04;;;;;;;46.13;21.15;;;;;;;;;;5051665;28;20046;-75
2022/03/22 07:28:30;;;;;;;45.78;20.80;;;;;;;;;;5068342;28;20045;-74
2022/03/22 07:30:56;;;;;;;42.25;20.17;;;;;;;;;;5066860;28;20040;-74
2022/03/22 07:33:22;;;;;;;40.55;20.35;;;;;;;;;;5051380;28;20536;-73
2022/03/22 07:35:48;;;;;;;42.15;21.33;;;;;;;;;;5068265;28;20472;-73
2022/03/22 07:38:14;;;;;;;46.33;20.75;;;;;;;;;;5051288;28;20127;-74
2022/03/22 07:40:40;;;;;;;41.00;21.75;;;;;;;;;;5067950;28;20040;-74
2022/03/22 07:43:06;;;;;;;45.40;22.15;;;;;;;;;;5050726;28;20089;-73
2022/03/22 07:45:32;;;;;;;42.13;21.45;;;;;;;;;;5051140;28;20066;-74
2022/03/22 07:47:58;;;;;;;43.35;20.17;;;;;;;;;;5067656;28;20040;-73
2022/03/22 07:53:10;;;;;;;39.78;20.63;;;;;;;;;;5067668;28;20044;-74
2022/03/22 07:55:40;;;;;;;37.75;20.00;;;;;;;;;;5050628;28;20375;-74
2022/03/22 07:58:07;;;;;;;37.30;18.73;;;;;;;;;;5051089;28;20052;-73
2022/03/22 08:00:35;;;;;;;37.78;20.65;;;;;;;;;;5050743;28;20044;-74
2022/03/22 08:03:03;;;;;;;40.22;20.65;;;;;;;;;;5067397;28;20539;-74
2022/03/22 08:05:29;;;;;;;36.80;19.95;;;;;;;;;;5050464;28;20070;-74
2022/03/22 08:07:55;;;;;;;43.67;20.75;;;;;;;;;;5051087;28;20047;-74
2022/03/22 08:10:22;;;;;;;37.33;19.60;;;;;;;;;;5067305;28;20032;-73
2022/03/22 08:12:48;;;;;;;39.17;20.33;;;;;;;;;;5067093;28;20170;-74
2022/03/22 08:15:14;;;;;;;41.78;20.90;;;;;;;;;;5050487;28;20067;-74
2022/03/22 08:17:40;;;;;;;36.00;19.60;;;;;;;;;;5066800;28;20048;-76
2022/03/22 08:20:07;;;;;;;38.38;20.00;;;;;;;;;;5051074;28;20051;-76
2022/03/22 08:22:50;;;;;;;38.47;19.73;;;;;;;;;;5050506;28;20054;-74
2022/03/22 08:25:17;;;;;;;32.28;18.45;;;;;;;;;;5050186;28;20048;-76
2022/03/22 08:27:44;;;;;;;33.72;19.58;;;;;;;;;;5066812;28;20414;-74
2022/03/22 08:30:12;;;;;;;36.30;20.83;;;;;;;;;;5050008;28;20209;-73
2022/03/22 08:32:38;;;;;;;37.38;20.33;;;;;;;;;;5050205;28;20036;-76
2022/03/22 08:35:04;;;;;;;37.05;19.33;;;;;;;;;;5066865;28;20077;-74
2022/03/22 08:37:30;;;;;;;35.53;18.75;;;;;;;;;;5066787;28;20040;-73
2022/03/22 08:39:56;;;;;;;35.55;20.10;;;;;;;;;;5067250;28;20505;-75
2022/03/22 08:42:22;;;;;;;37.50;20.40;;;;;;;;;;5053007;28;20045;-74
2022/03/22 08:44:49;;;;;;;36.78;19.77;;;;;;;;;;5053496;28;20127;-74
2022/03/22 08:47:15;;;;;;;33.75;19.25;;;;;;;;;;5053659;28;20040;-76
2022/03/22 08:49:41;;;;;;;34.80;20.35;;;;;;;;;;5053597;28;20053;-74
2022/03/22 08:52:07;;;;;;;32.88;18.98;;;;;;;;;;5053503;28;20033;-75
2022/03/22 08:54:35;;;;;;;33.75;19.52;;;;;;;;;;5070189;28;20036;-74
2022/03/22 08:57:01;;;;;;;35.47;19.55;;;;;;;;;;5053395;28;20047;-74
2022/03/22 08:59:27;;;;;;;37.25;19.67;;;;;;;;;;5053615;28;20040;-75
2022/03/22 09:01:53;;;;;;;31.45;17.45;;;;;;;;;;5053739;28;20033;-75
2022/03/22 09:07:04;;;;;;;30.02;18.70;;;;;;;;;;5070127;28;20040;-74
2022/03/22 09:09:30;;;;;;;31.10;18.08;;;;;;;;;;5070062;28;20131;-75
2022/03/22 09:11:56;;;;;;;34.25;27.98;;;;;;;;;;5070203;28;20049;-75
2022/03/22 09:14:22;;;;;;;34.85;18.58;;;;;;;;;;5053340;28;20036;-76
2022/03/22 09:16:48;;;;;;;31.33;18.52;;;;;;;;;;5069698;28;20063;-74
2022/03/22 09:19:14;;;;;;;30.67;17.95;;;;;;;;;;5069997;28;20055;-74
2022/03/22 09:21:40;;;;;;;31.27;18.08;;;;;;;;;;5069831;28;20036;-74
2022/03/22 09:24:07;;;;;;;31.48;18.27;;;;;;;;;;5070094;28;20035;-75
2022/03/22 09:26:33;;;;;;;36.70;18.23;;;;;;;;;;5053194;28;20120;-73
2022/03/22 09:29:01;;;;;;;36.15;19.08;;;;;;;;;;5070095;28;20505;-76
2022/03/22 09:31:27;;;;;;;32.80;18.25;;;;;;;;;;5069884;28;20040;-74
2022/03/22 09:33:53;;;;;;;27.80;16.77;;;;;;;;;;5069905;28;20047;-75
2022/03/22 09:36:20;;;;;;;32.38;16.63;;;;;;;;;;5069662;28;20040;-73
2022/03/22 09:38:46;;;;;;;29.98;17.83;;;;;;;;;;5053352;28;20127;-73
2022/03/22 09:41:13;;;;;;;29.33;17.10;;;;;;;;;;5052898;28;20040;-74
2022/03/22 09:43:44;;;;;;;35.47;18.52;;;;;;;;;;5069586;28;20040;-73
2022/03/22 09:46:10;;;;;;;34.55;18.92;;;;;;;;;;5069833;28;20079;-74
2022/03/22 09:48:36;;;;;;;33.85;19.55;;;;;;;;;;5053335;28;20048;-73
2022/03/22 09:53:49;;;;;;;30.92;17.88;;;;;;;;;;5070698;28;20040;-73
2022/03/22 09:56:14;;;;;;;32.78;18.20;;;;;;;;;;5056519;28;20036;-73
2022/03/22 09:58:40;;;;;;;37.72;18.77;;;;;;;;;;5056762;28;20094;-74
2022/03/22 10:01:06;;;;;;;32.15;16.60;;;;;;;;;;5056686;28;20033;-73
2022/03/22 10:03:32;;;;;;;34.20;17.88;;;;;;;;;;5056841;28;20036;-72
2022/03/22 10:06:03;;;;;;;34.00;17.83;;;;;;;;;;5056771;28;20036;-73
2022/03/22 10:08:29;;;;;;;33.17;17.38;;;;;;;;;;5073065;28;20052;-73
2022/03/22 10:10:57;;;;;;;32.47;17.38;;;;;;;;;;5055726;28;20097;-74
2022/03/22 10:13:23;;;;;;;32.45;17.35;;;;;;;;;;5073576;28;20055;-73
2022/03/22 10:15:49;;;;;;;33.47;17.80;;;;;;;;;;5056305;28;20493;-73
2022/03/22 10:18:22;;;;;;;32.17;17.08;;;;;;;;;;5056351;28;20049;-73
2022/03/22 10:20:49;;;;;;;33.20;16.50;;;;;;;;;;5074000;28;20041;-74
2022/03/22 10:23:15;;;;;;;32.70;17.08;;;;;;;;;;5072835;28;20039;-73
2022/03/22 10:25:42;;;;;;;31.23;16.48;;;;;;;;;;5055499;28;20461;-72
2022/03/22 10:28:08;;;;;;;31.60;16.40;;;;;;;;;;5055648;28;20132;-74
2022/03/22 10:30:35;;;;;;;31.73;16.63;;;;;;;;;;5072223;28;20066;-73
2022/03/22 10:33:01;;;;;;;29.65;16.45;;;;;;;;;;5054795;28;20032;-74
2022/03/22 10:35:37;;;;;;;35.40;17.08;;;;;;;;;;5071217;28;20377;-73
2022/03/22 10:38:04;;;;;;;29.38;16.63;;;;;;;;;;5071171;28;20068;-73
2022/03/22 10:40:30;;;;;;;32.72;17.05;;;;;;;;;;5071990;28;20047;-72
2022/03/22 10:43:04;;;;;;;31.60;17.25;;;;;;;;;;5055372;28;20429;-73
2022/03/22 10:45:40;;;;;;;31.13;16.48;;;;;;;;;;5053687;28;20437;-74
2022/03/22 10:48:06;;;;;;;34.45;17.35;;;;;;;;;;5072874;28;20098;-74
2022/03/22 10:50:37;;;;;;;34.90;15.70;;;;;;;;;;5073067;28;20048;-72
2022/03/22 10:53:03;;;;;;;31.38;16.77;;;;;;;;;;5072668;28;20037;-74
2022/03/22 10:55:30;;;;;;;37.17;17.88;;;;;;;;;;5055818;28;20076;-74
2022/03/22 10:57:57;;;;;;;36.05;18.63;;;;;;;;;;5055426;28;20082;-75
2022/03/22 11:00:23;;;;;;;30.38;16.95;;;;;;;;;;5055403;28;20385;-73
2022/03/22 11:02:51;;;;;;;32.78;16.80;;;;;;;;;;5056094;28;20055;-73
2022/03/22 11:05:20;;;;;;;28.75;16.25;;;;;;;;;;5053615;28;20044;-73
2022/03/22 11:07:46;;;;;;;35.47;17.65;;;;;;;;;;5055002;28;20055;-74
2022/03/22 11:10:12;;;;;;;38.80;19.08;;;;;;;;;;5055288;28;20059;-74
2022/03/22 11:12:38;;;;;;;33.58;17.05;;;;;;;;;;5072246;28;20069;-73
2022/03/22 11:15:05;;;;;;;33.58;17.25;;;;;;;;;;5055999;28;20551;-73
2022/03/22 11:17:35;;;;;;;32.97;17.30;;;;;;;;;;5055489;28;20109;-73
2022/03/22 11:20:07;;;;;;;31.58;16.33;;;;;;;;;;5055472;28;20052;-73
2022/03/22 11:22:33;;;;;;;35.63;17.55;;;;;;;;;;5071769;28;20093;-75
2022/03/22 11:25:09;;;;;;;30.48;17.35;;;;;;;;;;5055255;28;20507;-73
2022/03/22 11:27:35;;;;;;;35.78;17.77;;;;;;;;;;5071565;28;20404;-72
2022/03/22 11:30:02;;;;;;;31.08;17.00;;;;;;;;;;5055469;28;20514;-74
2022/03/22 11:35:16;;;;;;;28.38;16.08;;;;;;;;;;5071637;28;20049;-72
2022/03/22 11:37:42;;;;;;;32.97;16.30;;;;;;;;;;5071470;28;20048;-72
2022/03/22 11:43:09;;;;;;;32.10;15.68;;;;;;;;;;5071258;28;20041;-73
2022/03/22 11:45:45;;;;;;;31.33;16.92;;;;;;;;;;5071562;28;20044;-74
2022/03/22 11:48:11;;;;;;;33.67;17.23;;;;;;;;;;5054282;28;20047;-75
2022/03/22 11:50:37;;;;;;;32.47;18.20;;;;;;;;;;5071132;28;20048;-73
2022/03/22 11:53:03;;;;;;;29.63;15.93;;;;;;;;;;5054522;28;20041;-73
2022/03/22 11:55:29;;;;;;;30.17;15.43;;;;;;;;;;5054542;28;20037;-74
2022/03/22 11:58:00;;;;;;;32.75;16.05;;;;;;;;;;5071056;28;20045;-72
2022/03/22 12:00:46;;;;;;;31.60;16.02;;;;;;;;;;5054389;28;20107;-73
2022/03/22 12:03:13;;;;;;;33.58;17.13;;;;;;;;;;5071270;28;20040;-73
2022/03/22 12:05:39;;;;;;;33.92;16.83;;;;;;;;;;5054332;28;20036;-72
2022/03/22 12:08:09;;;;;;;31.73;15.60;;;;;;;;;;5071130;28;20044;-72
2022/03/22 12:10:35;;;;;;;34.20;16.63;;;;;;;;;;5070769;28;20467;-72
2022/03/22 12:13:02;;;;;;;35.47;16.95;;;;;;;;;;5054310;28;20082;-73
2022/03/22 12:15:28;;;;;;;33.95;16.35;;;;;;;;;;5053928;28;20052;-73
2022/03/22 12:17:54;;;;;;;36.95;16.98;;;;;;;;;;5070310;28;20045;-74
2022/03/22 12:20:21;;;;;;;32.17;16.10;;;;;;;;;;5053959;28;20067;-74
2022/03/22 12:22:52;;;;;;;33.60;17.73;;;;;;;;;;5070736;28;20071;-74
2022/03/22 12:25:20;;;;;;;32.58;16.77;;;;;;;;;;5054807;28;20037;-75
2022/03/22 12:28:07;;;;;;;37.38;16.35;;;;;;;;;;5054832;28;20135;-79
2022/03/22 12:30:34;;;;;;;34.53;16.67;;;;;;;;;;5054379;28;20040;-80
2022/03/22 12:33:07;;;;;;;34.42;15.75;;;;;;;;;;5071810;28;20044;-79
2022/03/22 12:35:34;;;;;;;31.98;16.85;;;;;;;;;;5054921;28;20047;-78
2022/03/22 12:38:00;;;;;;;35.67;17.02;;;;;;;;;;5059838;28;20127;-79
2022/03/22 12:40:26;;;;;;;40.13;16.75;;;;;;;;;;5051205;28;20477;-78
2022/03/22 12:42:53;;;;;;;38.60;25.52;;;;;;;;;;5034386;28;20129;-77
2022/03/22 12:45:20;;;;;;;36.35;16.55;;;;;;;;;;5051709;28;20080;-78
2022/03/22 12:47:48;;;;;;;37.05;17.15;;;;;;;;;;5034677;28;20045;-78
2022/03/22 12:50:15;;;;;;;38.15;18.15;;;;;;;;;;5051468;28;20048;-77
2022/03/22 12:52:41;;;;;;;37.03;16.35;;;;;;;;;;5034499;28;20040;-77
2022/03/22 12:55:08;;;;;;;33.60;16.10;;;;;;;;;;5034434;28;20040;-76
2022/03/22 12:57:35;;;;;;;36.38;17.15;;;;;;;;;;5034230;28;20048;-76
2022/03/22 13:00:01;;;;;;;33.05;17.25;;;;;;;;;;5051372;28;20491;-76
2022/03/22 13:02:27;;;;;;;36.00;24.17;;;;;;;;;;5033763;28;20037;-79
2022/03/22 13:04:54;;;;;;;35.22;16.42;;;;;;;;;;5051106;28;20037;-76
2022/03/22 13:07:21;;;;;;;28.42;14.70;;;;;;;;;;5050280;28;20045;-79
2022/03/22 13:12:34;;;;;;;35.88;15.98;;;;;;;;;;5050807;28;20049;-75
2022/03/22 13:15:06;;;;;;;33.28;16.10;;;;;;;;;;5049779;28;20048;-76
2022/03/22 13:17:43;;;;;;;36.05;15.25;;;;;;;;;;5033287;28;20664;-77
2022/03/22 13:20:21;;;;;;;35.80;15.82;;;;;;;;;;5051133;28;20049;-74
2022/03/22 13:22:53;;;;;;;31.52;14.65;;;;;;;;;;5050002;28;20044;-76
2022/03/22 13:25:24;;;;;;;28.25;14.18;;;;;;;;;;5049906;28;20048;-76
2022/03/22 13:27:50;;;;;;;;;;;;;;;;;;5050435;28;20446;-76
2022/03/22 13:30:17;;;;;;;30.60;14.65;;;;;;;;;;5053289;28;19921;-76
2022/03/22 13:32:43;;;;;;;33.33;16.02;;;;;;;;;;5053808;28;20114;-76
2022/03/22 13:35:11;;;;;;;31.83;15.57;;;;;;;;;;5037304;28;20084;-76
2022/03/22 13:37:49;;;;;;;30.40;13.90;;;;;;;;;;5054096;28;20048;-77
2022/03/22 13:40:15;;;;;;;26.88;14.93;;;;;;;;;;5054315;28;20047;-76
2022/03/22 13:43:14;;;;;;;25.95;13.65;;;;;;;;;;5037677;28;20044;-76
2022/03/22 13:45:48;;;;;;;32.15;21.70;;;;;;;;;;5004777;28;20405;-75
2022/03/22 13:48:14;;;;;;;30.02;15.48;;;;;;;;;;5036934;28;20041;-75
2022/03/22 13:50:42;;;;;;;33.08;15.60;;;;;;;;;;5053497;28;20084;-76
2022/03/22 13:53:12;;;;;;;34.75;15.65;;;;;;;;;;5036859;28;20441;-75
2022/03/22 13:55:46;;;;;;;27.65;14.90;;;;;;;;;;5053473;28;20040;-76
2022/03/22 13:58:13;;;;;;;29.92;14.05;;;;;;;;;;5053209;28;20038;-76
2022/03/22 14:00:43;;;;;;;27.17;14.23;;;;;;;;;;5053228;28;20396;-76
2022/03/22 14:03:10;;;;;;;28.30;14.30;;;;;;;;;;5036722;28;20378;-75
2022/03/22 14:05:37;;;;;;;32.88;15.65;;;;;;;;;;5037080;28;20485;-77
2022/03/22 14:08:03;;;;;;;30.50;15.65;;;;;;;;;;5053011;28;20045;-76
2022/03/22 14:10:29;;;;;;;28.08;14.07;;;;;;;;;;5036512;28;20099;-74
2022/03/22 14:12:55;;;;;;;29.48;13.48;;;;;;;;;;5053601;28;20083;-77
2022/03/22 14:15:22;;;;;;;27.60;13.95;;;;;;;;;;5052776;28;20060;-76
2022/03/22 14:17:48;;;;;;;26.75;13.68;;;;;;;;;;5052851;28;20416;-76
2022/03/22 14:20:18;;;;;;;29.30;20.17;;;;;;;;;;5053052;28;20150;-75
2022/03/22 14:22:48;;;;;;;25.27;13.15;;;;;;;;;;5036343;28;20543;-75
2022/03/22 14:25:15;;;;;;;24.88;12.50;;;;;;;;;;5053409;28;20040;-75
2022/03/22 14:27:42;;;;;;;26.58;13.02;;;;;;;;;;5036394;28;20059;-76
2022/03/22 14:30:14;;;;;;;26.20;18.85;;;;;;;;;;5052821;28;20076;-75
2022/03/22 14:32:41;;;;;;;26.35;13.07;;;;;;;;;;5036355;28;20084;-75
2022/03/22 14:37:52;;;;;;;25.65;13.77;;;;;;;;;;5052707;28;20053;-75
2022/03/22 14:40:18;;;;;;;28.40;19.42;;;;;;;;;;5052215;28;20486;-76
2022/03/22 14:42:44;;;;;;;21.65;11.60;;;;;;;;;;5035978;28;20040;-76
2022/03/22 14:45:11;;;;;;;23.52;13.15;;;;;;;;;;5052162;28;20114;-74
2022/03/22 14:47:38;;;;;;;29.00;13.70;;;;;;;;;;5036582;28;20481;-76
2022/03/22 14:50:05;;;;;;;29.15;19.13;;;;;;;;;;5053094;28;20052;-75
2022/03/22 14:55:15;;;;;;;25.58;13.10;;;;;;;;;;5052462;28;20049;-76
2022/03/22 15:00:26;;;;;;;25.75;12.45;;;;;;;;;;5052194;28;20041;-77
2022/03/22 15:02:52;;;;;;;27.98;13.60;;;;;;;;;;5035787;28;20064;-78
2022/03/22 15:05:34;;;;;;;25.65;13.15;;;;;;;;;;5052430;28;20033;-77
2022/03/22 15:08:09;;;;;;;28.17;13.10;;;;;;;;;;5052199;28;20080;-76